Time;durP1;ratioP1;P1;durP2;ratioP2;P2;SDS_P1;SDS_P2;PMS_P1;PMS_P2;Temp;Humidity;BMP_temperature;BMP_pressure;BME280_temperature;BME280_humidity;BME280_pressure;Samples;Min_cycle;Max_cycle;Signal;HPM_P1;HPM_P2
2019/06/25 00:00:28;;;;;;;11;10;;;;;;;17.13;90.19043;95609.54;;;;
2019/06/25 00:01:29;;;;;;;11;10;;;;;;;17.13;90.19043;95609.54;;;;
2019/06/25 00:02:30;;;;;;;11.45;10.25;;;;;;;16.95;91.4375;95593.66;;;;
2019/06/25 00:03:31;;;;;;;11.45;10.25;;;;;;;16.95;91.4375;95593.66;;;;
2019/06/25 00:04:32;;;;;;;11.45;10.25;;;;;;;16.95;91.4375;95593.66;;;;
2019/06/25 00:05:33;;;;;;;11.45;10.25;;;;;;;16.95;91.4375;95593.66;;;;
2019/06/25 00:06:35;;;;;;;11.45;10.25;;;;;;;16.95;91.4375;95593.66;;;;
2019/06/25 00:07:36;;;;;;;11.45;10.25;;;;;;;16.95;91.4375;95593.66;;;;
2019/06/25 00:08:37;;;;;;;11.45;10.25;;;;;;;16.95;91.4375;95593.66;;;;
2019/06/25 00:09:38;;;;;;;11.45;10.25;;;;;;;16.95;91.4375;95593.66;;;;
2019/06/25 00:10:39;;;;;;;11.45;10.25;;;;;;;16.95;91.4375;95593.66;;;;
2019/06/25 00:11:40;;;;;;;11.45;10.25;;;;;;;16.95;91.4375;95593.66;;;;
2019/06/25 00:12:41;;;;;;;11.35;10.35;;;;;;;16.76;92.45703;95600.69;;;;
2019/06/25 00:13:42;;;;;;;11.35;10.35;;;;;;;16.76;92.45703;95600.69;;;;
2019/06/25 00:14:43;;;;;;;11.35;10.35;;;;;;;16.76;92.45703;95600.69;;;;
2019/06/25 00:15:44;;;;;;;11.35;10.35;;;;;;;16.76;92.45703;95600.69;;;;
2019/06/25 00:16:46;;;;;;;11.35;10.35;;;;;;;16.76;92.45703;95600.69;;;;
2019/06/25 00:17:47;;;;;;;11.35;10.35;;;;;;;16.76;92.45703;95600.69;;;;
2019/06/25 00:18:48;;;;;;;11.35;10.35;;;;;;;16.76;92.45703;95600.69;;;;
2019/06/25 00:19:49;;;;;;;11.35;10.35;;;;;;;16.76;92.45703;95600.69;;;;
2019/06/25 00:20:50;;;;;;;11.35;10.35;;;;;;;16.76;92.45703;95600.69;;;;
2019/06/25 00:21:51;;;;;;;11.35;10.35;;;;;;;16.76;92.45703;95600.69;;;;
2019/06/25 00:22:52;;;;;;;11.35;10.35;;;;;;;16.76;92.45703;95600.69;;;;
2019/06/25 00:23:53;;;;;;;11.05;10.15;;;;;;;16.66;93.43066;95597.78;;;;
2019/06/25 00:24:54;;;;;;;11.05;10.15;;;;;;;16.66;93.43066;95597.78;;;;
2019/06/25 00:25:55;;;;;;;11.05;10.15;;;;;;;16.66;93.43066;95597.78;;;;
2019/06/25 00:26:57;;;;;;;11.05;10.15;;;;;;;16.66;93.43066;95597.78;;;;
2019/06/25 00:27:58;;;;;;;11.05;10.15;;;;;;;16.66;93.43066;95597.78;;;;
2019/06/25 00:28:59;;;;;;;11.05;10.15;;;;;;;16.66;93.43066;95597.78;;;;
2019/06/25 00:30:00;;;;;;;11.05;10.15;;;;;;;16.66;93.43066;95597.78;;;;
2019/06/25 00:31:01;;;;;;;11.05;10.15;;;;;;;16.66;93.43066;95597.78;;;;
2019/06/25 00:32:02;;;;;;;11.05;10.15;;;;;;;16.66;93.43066;95597.78;;;;
2019/06/25 00:33:03;;;;;;;11.05;10.15;;;;;;;16.66;93.43066;95597.78;;;;
2019/06/25 00:34:05;;;;;;;11.7;10.75;;;;;;;16.52;94.12305;95589.81;;;;
2019/06/25 00:35:06;;;;;;;11.7;10.75;;;;;;;16.52;94.12305;95589.81;;;;
2019/06/25 00:36:07;;;;;;;11.7;10.75;;;;;;;16.52;94.12305;95589.81;;;;
2019/06/25 00:37:08;;;;;;;11.7;10.75;;;;;;;16.52;94.12305;95589.81;;;;
2019/06/25 00:38:09;;;;;;;11.7;10.75;;;;;;;16.52;94.12305;95589.81;;;;
2019/06/25 00:39:10;;;;;;;11.7;10.75;;;;;;;16.52;94.12305;95589.81;;;;
2019/06/25 00:40:11;;;;;;;11.7;10.75;;;;;;;16.52;94.12305;95589.81;;;;
2019/06/25 00:41:13;;;;;;;11.7;10.75;;;;;;;16.52;94.12305;95589.81;;;;
2019/06/25 00:42:14;;;;;;;11.7;10.75;;;;;;;16.52;94.12305;95589.81;;;;
2019/06/25 00:43:15;;;;;;;11.7;10.75;;;;;;;16.52;94.12305;95589.81;;;;
2019/06/25 00:44:16;;;;;;;11.45;10.45;;;;;;;16.43;94.81445;95581;;;;
2019/06/25 00:45:17;;;;;;;11.45;10.45;;;;;;;16.43;94.81445;95581;;;;
2019/06/25 00:46:18;;;;;;;11.45;10.45;;;;;;;16.43;94.81445;95581;;;;
2019/06/25 00:47:19;;;;;;;11.45;10.45;;;;;;;16.43;94.81445;95581;;;;
2019/06/25 00:48:21;;;;;;;11.45;10.45;;;;;;;16.43;94.81445;95581;;;;
2019/06/25 00:49:22;;;;;;;11.45;10.45;;;;;;;16.43;94.81445;95581;;;;
2019/06/25 00:50:23;;;;;;;11.45;10.45;;;;;;;16.43;94.81445;95581;;;;
2019/06/25 00:51:24;;;;;;;11.45;10.45;;;;;;;16.43;94.81445;95581;;;;
2019/06/25 00:52:25;;;;;;;11.45;10.45;;;;;;;16.43;94.81445;95581;;;;
2019/06/25 00:53:26;;;;;;;11.45;10.45;;;;;;;16.43;94.81445;95581;;;;
2019/06/25 00:54:27;;;;;;;11.45;10.45;;;;;;;16.43;94.81445;95581;;;;
2019/06/25 00:55:28;;;;;;;12.25;11.15;;;;;;;16.3;95.47559;95590.05;;;;
2019/06/25 00:56:29;;;;;;;12.25;11.15;;;;;;;16.3;95.47559;95590.05;;;;
2019/06/25 00:57:30;;;;;;;12.25;11.15;;;;;;;16.3;95.47559;95590.05;;;;
2019/06/25 00:58:31;;;;;;;12.25;11.15;;;;;;;16.3;95.47559;95590.05;;;;
2019/06/25 00:59:33;;;;;;;12.25;11.15;;;;;;;16.3;95.47559;95590.05;;;;
2019/06/25 01:00:34;;;;;;;12.25;11.15;;;;;;;16.3;95.47559;95590.05;;;;
2019/06/25 01:01:35;;;;;;;12.25;11.15;;;;;;;16.3;95.47559;95590.05;;;;
2019/06/25 01:02:43;;;;;;;12.25;11.15;;;;;;;16.3;95.47559;95590.05;;;;
2019/06/25 01:03:45;;;;;;;12.25;11.15;;;;;;;16.3;95.47559;95590.05;;;;
2019/06/25 01:04:46;;;;;;;12.25;11.15;;;;;;;16.3;95.47559;95590.05;;;;
2019/06/25 01:05:47;;;;;;;11.95;10.95;;;;;;;16.22;96.26758;95573.69;;;;
2019/06/25 01:06:48;;;;;;;11.95;10.95;;;;;;;16.22;96.26758;95573.69;;;;
2019/06/25 01:07:49;;;;;;;11.95;10.95;;;;;;;16.22;96.26758;95573.69;;;;
2019/06/25 01:08:51;;;;;;;11.95;10.95;;;;;;;16.22;96.26758;95573.69;;;;
2019/06/25 01:09:52;;;;;;;11.95;10.95;;;;;;;16.22;96.26758;95573.69;;;;
2019/06/25 01:10:53;;;;;;;11.95;10.95;;;;;;;16.22;96.26758;95573.69;;;;
2019/06/25 01:11:54;;;;;;;11.95;10.95;;;;;;;16.22;96.26758;95573.69;;;;
2019/06/25 01:12:55;;;;;;;11.95;10.95;;;;;;;16.22;96.26758;95573.69;;;;
2019/06/25 01:13:56;;;;;;;11.95;10.95;;;;;;;16.22;96.26758;95573.69;;;;
2019/06/25 01:14:57;;;;;;;11.95;10.95;;;;;;;16.22;96.26758;95573.69;;;;
2019/06/25 01:15:59;;;;;;;12.1;11;;;;;;;16.14;96.73535;95559.19;;;;
2019/06/25 01:17:00;;;;;;;12.1;11;;;;;;;16.14;96.73535;95559.19;;;;
2019/06/25 01:18:01;;;;;;;12.1;11;;;;;;;16.14;96.73535;95559.19;;;;
2019/06/25 01:19:03;;;;;;;12.1;11;;;;;;;16.14;96.73535;95559.19;;;;
2019/06/25 01:20:04;;;;;;;12.1;11;;;;;;;16.14;96.73535;95559.19;;;;
2019/06/25 01:21:05;;;;;;;12.1;11;;;;;;;16.14;96.73535;95559.19;;;;
2019/06/25 01:22:07;;;;;;;12.1;11;;;;;;;16.14;96.73535;95559.19;;;;
2019/06/25 01:23:08;;;;;;;12.1;11;;;;;;;16.14;96.73535;95559.19;;;;
2019/06/25 01:24:09;;;;;;;12.1;11;;;;;;;16.14;96.73535;95559.19;;;;
2019/06/25 01:25:10;;;;;;;12.1;11;;;;;;;16.14;96.73535;95559.19;;;;
2019/06/25 01:26:11;;;;;;;12.1;11;;;;;;;16.14;96.73535;95559.19;;;;
2019/06/25 01:27:13;;;;;;;12.6;11.4;;;;;;;16.12;97.35352;95566.38;;;;
2019/06/25 01:28:14;;;;;;;12.6;11.4;;;;;;;16.12;97.35352;95566.38;;;;
2019/06/25 01:29:15;;;;;;;12.6;11.4;;;;;;;16.12;97.35352;95566.38;;;;
2019/06/25 01:30:16;;;;;;;12.6;11.4;;;;;;;16.12;97.35352;95566.38;;;;
2019/06/25 01:31:18;;;;;;;12.6;11.4;;;;;;;16.12;97.35352;95566.38;;;;
2019/06/25 01:32:19;;;;;;;12.6;11.4;;;;;;;16.12;97.35352;95566.38;;;;
2019/06/25 01:33:20;;;;;;;12.6;11.4;;;;;;;16.12;97.35352;95566.38;;;;
2019/06/25 01:34:21;;;;;;;12.6;11.4;;;;;;;16.12;97.35352;95566.38;;;;
2019/06/25 01:35:22;;;;;;;12.6;11.4;;;;;;;16.12;97.35352;95566.38;;;;
2019/06/25 01:36:24;;;;;;;12.6;11.4;;;;;;;16.12;97.35352;95566.38;;;;
2019/06/25 01:37:25;;;;;;;12.45;11.35;;;;;;;16.02;97.94434;95559.11;;;;
2019/06/25 01:38:26;;;;;;;12.45;11.35;;;;;;;16.02;97.94434;95559.11;;;;
2019/06/25 01:39:27;;;;;;;12.45;11.35;;;;;;;16.02;97.94434;95559.11;;;;
2019/06/25 01:40:28;;;;;;;12.45;11.35;;;;;;;16.02;97.94434;95559.11;;;;
2019/06/25 01:41:29;;;;;;;12.45;11.35;;;;;;;16.02;97.94434;95559.11;;;;
2019/06/25 01:42:30;;;;;;;12.45;11.35;;;;;;;16.02;97.94434;95559.11;;;;
2019/06/25 01:43:32;;;;;;;12.45;11.35;;;;;;;16.02;97.94434;95559.11;;;;
2019/06/25 01:44:33;;;;;;;12.45;11.35;;;;;;;16.02;97.94434;95559.11;;;;
2019/06/25 01:45:34;;;;;;;12.45;11.35;;;;;;;16.02;97.94434;95559.11;;;;
2019/06/25 01:46:35;;;;;;;12.45;11.35;;;;;;;16.02;97.94434;95559.11;;;;
2019/06/25 01:47:36;;;;;;;12.45;11.35;;;;;;;16.02;97.94434;95559.11;;;;
2019/06/25 01:48:37;;;;;;;12.65;11.55;;;;;;;15.97;98.46094;95553.63;;;;
2019/06/25 01:49:39;;;;;;;12.65;11.55;;;;;;;15.97;98.46094;95553.63;;;;
2019/06/25 01:50:40;;;;;;;12.65;11.55;;;;;;;15.97;98.46094;95553.63;;;;
2019/06/25 01:51:41;;;;;;;12.65;11.55;;;;;;;15.97;98.46094;95553.63;;;;
2019/06/25 01:52:42;;;;;;;12.65;11.55;;;;;;;15.97;98.46094;95553.63;;;;
2019/06/25 01:53:43;;;;;;;12.65;11.55;;;;;;;15.97;98.46094;95553.63;;;;
2019/06/25 01:54:44;;;;;;;12.65;11.55;;;;;;;15.97;98.46094;95553.63;;;;
2019/06/25 01:55:45;;;;;;;12.65;11.55;;;;;;;15.97;98.46094;95553.63;;;;
2019/06/25 01:56:47;;;;;;;12.65;11.55;;;;;;;15.97;98.46094;95553.63;;;;
2019/06/25 01:57:48;;;;;;;12.65;11.55;;;;;;;15.97;98.46094;95553.63;;;;
2019/06/25 01:58:49;;;;;;;12.95;11.95;;;;;;;15.81;98.92188;95547.28;;;;
2019/06/25 01:59:50;;;;;;;12.95;11.95;;;;;;;15.81;98.92188;95547.28;;;;
2019/06/25 02:00:51;;;;;;;12.95;11.95;;;;;;;15.81;98.92188;95547.28;;;;
2019/06/25 02:01:52;;;;;;;12.95;11.95;;;;;;;15.81;98.92188;95547.28;;;;
2019/06/25 02:02:54;;;;;;;12.95;11.95;;;;;;;15.81;98.92188;95547.28;;;;
2019/06/25 02:03:55;;;;;;;12.95;11.95;;;;;;;15.81;98.92188;95547.28;;;;
2019/06/25 02:04:56;;;;;;;12.95;11.95;;;;;;;15.81;98.92188;95547.28;;;;
2019/06/25 02:05:57;;;;;;;12.95;11.95;;;;;;;15.81;98.92188;95547.28;;;;
2019/06/25 02:06:58;;;;;;;12.95;11.95;;;;;;;15.81;98.92188;95547.28;;;;
2019/06/25 02:08:00;;;;;;;12.95;11.95;;;;;;;15.81;98.92188;95547.28;;;;
2019/06/25 02:09:01;;;;;;;13.35;12.25;;;;;;;15.72;99.41699;95537.13;;;;
2019/06/25 02:10:04;;;;;;;13.35;12.25;;;;;;;15.72;99.41699;95537.13;;;;
2019/06/25 02:11:06;;;;;;;13.35;12.25;;;;;;;15.72;99.41699;95537.13;;;;
2019/06/25 02:12:07;;;;;;;13.35;12.25;;;;;;;15.72;99.41699;95537.13;;;;
2019/06/25 02:13:08;;;;;;;13.35;12.25;;;;;;;15.72;99.41699;95537.13;;;;
2019/06/25 02:14:10;;;;;;;13.35;12.25;;;;;;;15.72;99.41699;95537.13;;;;
2019/06/25 02:15:11;;;;;;;13.35;12.25;;;;;;;15.72;99.41699;95537.13;;;;
2019/06/25 02:16:13;;;;;;;13.35;12.25;;;;;;;15.72;99.41699;95537.13;;;;
2019/06/25 02:17:14;;;;;;;13.35;12.25;;;;;;;15.72;99.41699;95537.13;;;;
2019/06/25 02:18:15;;;;;;;13.35;12.25;;;;;;;15.72;99.41699;95537.13;;;;
2019/06/25 02:19:16;;;;;;;13.35;12.25;;;;;;;15.72;99.41699;95537.13;;;;
2019/06/25 02:20:18;;;;;;;13.7;12.4;;;;;;;15.55;99.98047;95540.94;;;;
2019/06/25 02:21:19;;;;;;;13.7;12.4;;;;;;;15.55;99.98047;95540.94;;;;
2019/06/25 02:22:20;;;;;;;13.7;12.4;;;;;;;15.55;99.98047;95540.94;;;;
2019/06/25 02:23:21;;;;;;;13.7;12.4;;;;;;;15.55;99.98047;95540.94;;;;
2019/06/25 02:24:23;;;;;;;13.7;12.4;;;;;;;15.55;99.98047;95540.94;;;;
2019/06/25 02:25:24;;;;;;;13.7;12.4;;;;;;;15.55;99.98047;95540.94;;;;
2019/06/25 02:26:25;;;;;;;13.7;12.4;;;;;;;15.55;99.98047;95540.94;;;;
2019/06/25 02:27:26;;;;;;;13.7;12.4;;;;;;;15.55;99.98047;95540.94;;;;
2019/06/25 02:28:27;;;;;;;13.7;12.4;;;;;;;15.55;99.98047;95540.94;;;;
2019/06/25 02:29:28;;;;;;;13.7;12.4;;;;;;;15.55;99.98047;95540.94;;;;
2019/06/25 02:30:30;;;;;;;14.15;12.95;;;;;;;15.49;100;95549.59;;;;
2019/06/25 02:31:31;;;;;;;14.15;12.95;;;;;;;15.49;100;95549.59;;;;
2019/06/25 02:32:32;;;;;;;14.15;12.95;;;;;;;15.49;100;95549.59;;;;
2019/06/25 02:33:34;;;;;;;14.15;12.95;;;;;;;15.49;100;95549.59;;;;
2019/06/25 02:34:35;;;;;;;14.15;12.95;;;;;;;15.49;100;95549.59;;;;
2019/06/25 02:35:37;;;;;;;14.15;12.95;;;;;;;15.49;100;95549.59;;;;
2019/06/25 02:36:38;;;;;;;14.15;12.95;;;;;;;15.49;100;95549.59;;;;
2019/06/25 02:37:39;;;;;;;14.15;12.95;;;;;;;15.49;100;95549.59;;;;
2019/06/25 02:38:40;;;;;;;14.15;12.95;;;;;;;15.49;100;95549.59;;;;
2019/06/25 02:39:41;;;;;;;14.15;12.95;;;;;;;15.49;100;95549.59;;;;
2019/06/25 02:40:42;;;;;;;14.15;12.95;;;;;;;15.49;100;95549.59;;;;
2019/06/25 02:41:44;;;;;;;15.8;14.4;;;;;;;15.4;100;95566.53;;;;
2019/06/25 02:42:45;;;;;;;15.8;14.4;;;;;;;15.4;100;95566.53;;;;
2019/06/25 02:43:46;;;;;;;15.8;14.4;;;;;;;15.4;100;95566.53;;;;
2019/06/25 02:44:47;;;;;;;15.8;14.4;;;;;;;15.4;100;95566.53;;;;
2019/06/25 02:45:49;;;;;;;15.8;14.4;;;;;;;15.4;100;95566.53;;;;
2019/06/25 02:46:50;;;;;;;15.8;14.4;;;;;;;15.4;100;95566.53;;;;
2019/06/25 02:47:52;;;;;;;15.8;14.4;;;;;;;15.4;100;95566.53;;;;
2019/06/25 02:48:53;;;;;;;15.8;14.4;;;;;;;15.4;100;95566.53;;;;
2019/06/25 02:49:54;;;;;;;15.8;14.4;;;;;;;15.4;100;95566.53;;;;
2019/06/25 02:50:55;;;;;;;15.8;14.4;;;;;;;15.4;100;95566.53;;;;
2019/06/25 02:51:56;;;;;;;14.35;13.15;;;;;;;15.35;100;95556.52;;;;
2019/06/25 02:52:57;;;;;;;14.35;13.15;;;;;;;15.35;100;95556.52;;;;
2019/06/25 02:53:58;;;;;;;14.35;13.15;;;;;;;15.35;100;95556.52;;;;
2019/06/25 02:55:00;;;;;;;14.35;13.15;;;;;;;15.35;100;95556.52;;;;
2019/06/25 02:56:01;;;;;;;14.35;13.15;;;;;;;15.35;100;95556.52;;;;
2019/06/25 02:57:02;;;;;;;14.35;13.15;;;;;;;15.35;100;95556.52;;;;
2019/06/25 02:58:03;;;;;;;14.35;13.15;;;;;;;15.35;100;95556.52;;;;
2019/06/25 02:59:04;;;;;;;14.35;13.15;;;;;;;15.35;100;95556.52;;;;
2019/06/25 03:00:05;;;;;;;14.35;13.15;;;;;;;15.35;100;95556.52;;;;
2019/06/25 03:01:07;;;;;;;14.35;13.15;;;;;;;15.35;100;95556.52;;;;
2019/06/25 03:02:08;;;;;;;15.65;14.2;;;;;;;15.26;100;95556.71;;;;
2019/06/25 03:03:10;;;;;;;15.65;14.2;;;;;;;15.26;100;95556.71;;;;
2019/06/25 03:04:11;;;;;;;15.65;14.2;;;;;;;15.26;100;95556.71;;;;
2019/06/25 03:05:12;;;;;;;15.65;14.2;;;;;;;15.26;100;95556.71;;;;
2019/06/25 03:06:13;;;;;;;15.65;14.2;;;;;;;15.26;100;95556.71;;;;
2019/06/25 03:07:14;;;;;;;15.65;14.2;;;;;;;15.26;100;95556.71;;;;
2019/06/25 03:08:15;;;;;;;15.65;14.2;;;;;;;15.26;100;95556.71;;;;
2019/06/25 03:09:16;;;;;;;15.65;14.2;;;;;;;15.26;100;95556.71;;;;
2019/06/25 03:10:18;;;;;;;15.65;14.2;;;;;;;15.26;100;95556.71;;;;
2019/06/25 03:11:19;;;;;;;15.65;14.2;;;;;;;15.26;100;95556.71;;;;
2019/06/25 03:12:20;;;;;;;15.65;14.2;;;;;;;15.26;100;95556.71;;;;
2019/06/25 03:13:21;;;;;;;15.85;14.45;;;;;;;15.22;100;95551.5;;;;
2019/06/25 03:14:23;;;;;;;15.85;14.45;;;;;;;15.22;100;95551.5;;;;
2019/06/25 03:15:24;;;;;;;15.85;14.45;;;;;;;15.22;100;95551.5;;;;
2019/06/25 03:16:25;;;;;;;15.85;14.45;;;;;;;15.22;100;95551.5;;;;
2019/06/25 03:17:26;;;;;;;15.85;14.45;;;;;;;15.22;100;95551.5;;;;
2019/06/25 03:18:27;;;;;;;15.85;14.45;;;;;;;15.22;100;95551.5;;;;
2019/06/25 03:19:28;;;;;;;15.85;14.45;;;;;;;15.22;100;95551.5;;;;
2019/06/25 03:20:29;;;;;;;15.85;14.45;;;;;;;15.22;100;95551.5;;;;
2019/06/25 03:21:30;;;;;;;15.85;14.45;;;;;;;15.22;100;95551.5;;;;
2019/06/25 03:22:31;;;;;;;15.85;14.45;;;;;;;15.22;100;95551.5;;;;
2019/06/25 03:23:33;;;;;;;15.55;14.15;;;;;;;15.13;100;95558.1;;;;
2019/06/25 03:24:34;;;;;;;15.55;14.15;;;;;;;15.13;100;95558.1;;;;
2019/06/25 03:25:35;;;;;;;15.55;14.15;;;;;;;15.13;100;95558.1;;;;
2019/06/25 03:26:36;;;;;;;15.55;14.15;;;;;;;15.13;100;95558.1;;;;
2019/06/25 03:27:37;;;;;;;15.55;14.15;;;;;;;15.13;100;95558.1;;;;
2019/06/25 03:28:38;;;;;;;15.55;14.15;;;;;;;15.13;100;95558.1;;;;
2019/06/25 03:29:39;;;;;;;15.55;14.15;;;;;;;15.13;100;95558.1;;;;
2019/06/25 03:30:40;;;;;;;15.55;14.15;;;;;;;15.13;100;95558.1;;;;
2019/06/25 03:31:42;;;;;;;15.55;14.15;;;;;;;15.13;100;95558.1;;;;
2019/06/25 03:32:43;;;;;;;15.55;14.15;;;;;;;15.13;100;95558.1;;;;
2019/06/25 03:33:44;;;;;;;15.55;14.15;;;;;;;15.13;100;95558.1;;;;
2019/06/25 03:34:45;;;;;;;16.35;14.9;;;;;;;15.15;100;95558.51;;;;
2019/06/25 03:35:46;;;;;;;16.35;14.9;;;;;;;15.15;100;95558.51;;;;
2019/06/25 03:36:47;;;;;;;16.35;14.9;;;;;;;15.15;100;95558.51;;;;
2019/06/25 03:37:49;;;;;;;16.35;14.9;;;;;;;15.15;100;95558.51;;;;
2019/06/25 03:38:50;;;;;;;16.35;14.9;;;;;;;15.15;100;95558.51;;;;
2019/06/25 03:39:51;;;;;;;16.35;14.9;;;;;;;15.15;100;95558.51;;;;
2019/06/25 03:40:52;;;;;;;16.35;14.9;;;;;;;15.15;100;95558.51;;;;
2019/06/25 03:41:53;;;;;;;16.35;14.9;;;;;;;15.15;100;95558.51;;;;
2019/06/25 03:42:54;;;;;;;16.35;14.9;;;;;;;15.15;100;95558.51;;;;
2019/06/25 03:43:55;;;;;;;16.35;14.9;;;;;;;15.15;100;95558.51;;;;
2019/06/25 03:44:56;;;;;;;17.35;15.85;;;;;;;15.15;100;95564.49;;;;
2019/06/25 03:45:57;;;;;;;17.35;15.85;;;;;;;15.15;100;95564.49;;;;
2019/06/25 03:46:58;;;;;;;17.35;15.85;;;;;;;15.15;100;95564.49;;;;
2019/06/25 03:48:00;;;;;;;17.35;15.85;;;;;;;15.15;100;95564.49;;;;
2019/06/25 03:49:01;;;;;;;17.35;15.85;;;;;;;15.15;100;95564.49;;;;
2019/06/25 03:50:02;;;;;;;17.35;15.85;;;;;;;15.15;100;95564.49;;;;
2019/06/25 03:51:04;;;;;;;17.35;15.85;;;;;;;15.15;100;95564.49;;;;
2019/06/25 03:52:05;;;;;;;17.35;15.85;;;;;;;15.15;100;95564.49;;;;
2019/06/25 03:53:06;;;;;;;17.35;15.85;;;;;;;15.15;100;95564.49;;;;
2019/06/25 03:54:08;;;;;;;17.35;15.85;;;;;;;15.15;100;95564.49;;;;
2019/06/25 03:55:09;;;;;;;17.5;15.85;;;;;;;15.26;100;95568.95;;;;
2019/06/25 03:56:10;;;;;;;17.5;15.85;;;;;;;15.26;100;95568.95;;;;
2019/06/25 03:57:11;;;;;;;17.5;15.85;;;;;;;15.26;100;95568.95;;;;
2019/06/25 03:58:12;;;;;;;17.5;15.85;;;;;;;15.26;100;95568.95;;;;
2019/06/25 03:59:13;;;;;;;17.5;15.85;;;;;;;15.26;100;95568.95;;;;
2019/06/25 04:00:14;;;;;;;17.5;15.85;;;;;;;15.26;100;95568.95;;;;
2019/06/25 04:01:16;;;;;;;17.5;15.85;;;;;;;15.26;100;95568.95;;;;
2019/06/25 04:02:17;;;;;;;17.5;15.85;;;;;;;15.26;100;95568.95;;;;
2019/06/25 04:03:18;;;;;;;17.5;15.85;;;;;;;15.26;100;95568.95;;;;
2019/06/25 04:04:19;;;;;;;17.5;15.85;;;;;;;15.26;100;95568.95;;;;
2019/06/25 04:05:20;;;;;;;17.5;15.85;;;;;;;15.26;100;95568.95;;;;
2019/06/25 04:06:21;;;;;;;17.5;15.65;;;;;;;15.34;100;95580.74;;;;
2019/06/25 04:07:22;;;;;;;17.5;15.65;;;;;;;15.34;100;95580.74;;;;
2019/06/25 04:08:23;;;;;;;17.5;15.65;;;;;;;15.34;100;95580.74;;;;
2019/06/25 04:09:25;;;;;;;17.5;15.65;;;;;;;15.34;100;95580.74;;;;
2019/06/25 04:10:26;;;;;;;17.5;15.65;;;;;;;15.34;100;95580.74;;;;
2019/06/25 04:11:27;;;;;;;17.5;15.65;;;;;;;15.34;100;95580.74;;;;
2019/06/25 04:12:28;;;;;;;17.5;15.65;;;;;;;15.34;100;95580.74;;;;
2019/06/25 04:13:29;;;;;;;17.5;15.65;;;;;;;15.34;100;95580.74;;;;
2019/06/25 04:14:30;;;;;;;17.5;15.65;;;;;;;15.34;100;95580.74;;;;
2019/06/25 04:15:31;;;;;;;17.5;15.65;;;;;;;15.34;100;95580.74;;;;
2019/06/25 04:16:32;;;;;;;16.75;15.25;;;;;;;15.49;100;95594.08;;;;
2019/06/25 04:17:33;;;;;;;16.75;15.25;;;;;;;15.49;100;95594.08;;;;
2019/06/25 04:18:34;;;;;;;16.75;15.25;;;;;;;15.49;100;95594.08;;;;
2019/06/25 04:19:36;;;;;;;16.75;15.25;;;;;;;15.49;100;95594.08;;;;
2019/06/25 04:20:37;;;;;;;16.75;15.25;;;;;;;15.49;100;95594.08;;;;
2019/06/25 04:21:38;;;;;;;16.75;15.25;;;;;;;15.49;100;95594.08;;;;
2019/06/25 04:22:39;;;;;;;16.75;15.25;;;;;;;15.49;100;95594.08;;;;
2019/06/25 04:23:40;;;;;;;16.75;15.25;;;;;;;15.49;100;95594.08;;;;
2019/06/25 04:24:41;;;;;;;16.75;15.25;;;;;;;15.49;100;95594.08;;;;
2019/06/25 04:25:42;;;;;;;16.75;15.25;;;;;;;15.49;100;95594.08;;;;
2019/06/25 04:26:43;;;;;;;16.75;15.25;;;;;;;15.49;100;95594.08;;;;
2019/06/25 04:27:44;;;;;;;16.55;15;;;;;;;15.65;100;95593.55;;;;
2019/06/25 04:28:46;;;;;;;16.55;15;;;;;;;15.65;100;95593.55;;;;
2019/06/25 04:29:47;;;;;;;16.55;15;;;;;;;15.65;100;95593.55;;;;
2019/06/25 04:30:48;;;;;;;16.55;15;;;;;;;15.65;100;95593.55;;;;
2019/06/25 04:31:49;;;;;;;16.55;15;;;;;;;15.65;100;95593.55;;;;
2019/06/25 04:32:50;;;;;;;16.55;15;;;;;;;15.65;100;95593.55;;;;
2019/06/25 04:33:51;;;;;;;16.55;15;;;;;;;15.65;100;95593.55;;;;
2019/06/25 04:34:52;;;;;;;16.55;15;;;;;;;15.65;100;95593.55;;;;
2019/06/25 04:35:53;;;;;;;16.55;15;;;;;;;15.65;100;95593.55;;;;
2019/06/25 04:36:54;;;;;;;16.55;15;;;;;;;15.65;100;95593.55;;;;
2019/06/25 04:37:56;;;;;;;18.05;15.9;;;;;;;15.96;100;95587.8;;;;
2019/06/25 04:38:57;;;;;;;18.05;15.9;;;;;;;15.96;100;95587.8;;;;
2019/06/25 04:39:58;;;;;;;18.05;15.9;;;;;;;15.96;100;95587.8;;;;
2019/06/25 04:40:59;;;;;;;18.05;15.9;;;;;;;15.96;100;95587.8;;;;
2019/06/25 04:42:00;;;;;;;18.05;15.9;;;;;;;15.96;100;95587.8;;;;
2019/06/25 04:43:01;;;;;;;18.05;15.9;;;;;;;15.96;100;95587.8;;;;
2019/06/25 04:44:02;;;;;;;18.05;15.9;;;;;;;15.96;100;95587.8;;;;
2019/06/25 04:45:03;;;;;;;18.05;15.9;;;;;;;15.96;100;95587.8;;;;
2019/06/25 04:46:06;;;;;;;18.05;15.9;;;;;;;15.96;100;95587.8;;;;
2019/06/25 04:47:07;;;;;;;18.05;15.9;;;;;;;15.96;100;95587.8;;;;
2019/06/25 04:48:08;;;;;;;18.05;15.9;;;;;;;15.96;100;95587.8;;;;
2019/06/25 04:49:09;;;;;;;15.7;14.15;;;;;;;16.24;100;95595.22;;;;
2019/06/25 04:50:10;;;;;;;15.7;14.15;;;;;;;16.24;100;95595.22;;;;
2019/06/25 04:51:14;;;;;;;15.7;14.15;;;;;;;16.24;100;95595.22;;;;
2019/06/25 04:52:15;;;;;;;15.7;14.15;;;;;;;16.24;100;95595.22;;;;
2019/06/25 04:53:16;;;;;;;15.7;14.15;;;;;;;16.24;100;95595.22;;;;
2019/06/25 04:54:17;;;;;;;15.7;14.15;;;;;;;16.24;100;95595.22;;;;
2019/06/25 04:55:18;;;;;;;15.7;14.15;;;;;;;16.24;100;95595.22;;;;
2019/06/25 04:56:19;;;;;;;15.7;14.15;;;;;;;16.24;100;95595.22;;;;
2019/06/25 04:57:20;;;;;;;15.7;14.15;;;;;;;16.24;100;95595.22;;;;
2019/06/25 04:58:21;;;;;;;15.7;14.15;;;;;;;16.24;100;95595.22;;;;
2019/06/25 04:59:23;;;;;;;13.8;12.5;;;;;;;16.73;100;95595.78;;;;
2019/06/25 05:00:24;;;;;;;13.8;12.5;;;;;;;16.73;100;95595.78;;;;
2019/06/25 05:01:25;;;;;;;13.8;12.5;;;;;;;16.73;100;95595.78;;;;
2019/06/25 05:02:26;;;;;;;13.8;12.5;;;;;;;16.73;100;95595.78;;;;
2019/06/25 05:03:27;;;;;;;13.8;12.5;;;;;;;16.73;100;95595.78;;;;
2019/06/25 05:04:28;;;;;;;13.8;12.5;;;;;;;16.73;100;95595.78;;;;
2019/06/25 05:05:29;;;;;;;13.8;12.5;;;;;;;16.73;100;95595.78;;;;
2019/06/25 05:06:31;;;;;;;13.8;12.5;;;;;;;16.73;100;95595.78;;;;
2019/06/25 05:07:32;;;;;;;13.8;12.5;;;;;;;16.73;100;95595.78;;;;
2019/06/25 05:08:33;;;;;;;13.8;12.5;;;;;;;16.73;100;95595.78;;;;
2019/06/25 05:09:34;;;;;;;13.05;11.6;;;;;;;17.15;100;95602.73;;;;
2019/06/25 05:10:35;;;;;;;13.05;11.6;;;;;;;17.15;100;95602.73;;;;
2019/06/25 05:11:36;;;;;;;13.05;11.6;;;;;;;17.15;100;95602.73;;;;
2019/06/25 05:12:37;;;;;;;13.05;11.6;;;;;;;17.15;100;95602.73;;;;
2019/06/25 05:13:39;;;;;;;13.05;11.6;;;;;;;17.15;100;95602.73;;;;
2019/06/25 05:14:40;;;;;;;13.05;11.6;;;;;;;17.15;100;95602.73;;;;
2019/06/25 05:15:44;;;;;;;13.05;11.6;;;;;;;17.15;100;95602.73;;;;
2019/06/25 05:16:46;;;;;;;13.05;11.6;;;;;;;17.15;100;95602.73;;;;
2019/06/25 05:17:48;;;;;;;13.05;11.6;;;;;;;17.15;100;95602.73;;;;
2019/06/25 05:18:49;;;;;;;13.05;11.6;;;;;;;17.15;100;95602.73;;;;
2019/06/25 05:19:50;;;;;;;13.05;11.6;;;;;;;17.15;100;95602.73;;;;
2019/06/25 05:20:51;;;;;;;11.5;10.45;;;;;;;17.63;100;95603.67;;;;
2019/06/25 05:21:52;;;;;;;11.5;10.45;;;;;;;17.63;100;95603.67;;;;
2019/06/25 05:22:54;;;;;;;11.5;10.45;;;;;;;17.63;100;95603.67;;;;
2019/06/25 05:23:57;;;;;;;11.5;10.45;;;;;;;17.63;100;95603.67;;;;
2019/06/25 05:24:58;;;;;;;11.5;10.45;;;;;;;17.63;100;95603.67;;;;
2019/06/25 05:26:00;;;;;;;11.5;10.45;;;;;;;17.63;100;95603.67;;;;
2019/06/25 05:27:01;;;;;;;11.5;10.45;;;;;;;17.63;100;95603.67;;;;
2019/06/25 05:28:02;;;;;;;11.5;10.45;;;;;;;17.63;100;95603.67;;;;
2019/06/25 05:29:04;;;;;;;11.5;10.45;;;;;;;17.63;100;95603.67;;;;
2019/06/25 05:30:05;;;;;;;11.5;10.45;;;;;;;17.63;100;95603.67;;;;
2019/06/25 05:31:07;;;;;;;10.8;9.699999;;;;;;;18.05;100;95608.87;;;;
2019/06/25 05:32:08;;;;;;;10.8;9.699999;;;;;;;18.05;100;95608.87;;;;
2019/06/25 05:33:09;;;;;;;10.8;9.699999;;;;;;;18.05;100;95608.87;;;;
2019/06/25 05:34:11;;;;;;;10.8;9.699999;;;;;;;18.05;100;95608.87;;;;
2019/06/25 05:35:12;;;;;;;10.8;9.699999;;;;;;;18.05;100;95608.87;;;;
2019/06/25 05:37:29;;;;;;;10.8;9.699999;;;;;;;18.05;100;95608.87;;;;
2019/06/25 05:38:31;;;;;;;10.8;9.699999;;;;;;;18.05;100;95608.87;;;;
2019/06/25 05:39:32;;;;;;;10.8;9.699999;;;;;;;18.05;100;95608.87;;;;
2019/06/25 05:40:33;;;;;;;10.8;9.699999;;;;;;;18.05;100;95608.87;;;;
2019/06/25 05:41:34;;;;;;;10.6;9.6;;;;;;;18.52;100;95609.5;;;;
2019/06/25 05:42:36;;;;;;;10.6;9.6;;;;;;;18.52;100;95609.5;;;;
2019/06/25 05:43:37;;;;;;;10.6;9.6;;;;;;;18.52;100;95609.5;;;;
2019/06/25 05:44:38;;;;;;;10.6;9.6;;;;;;;18.52;100;95609.5;;;;
2019/06/25 05:45:39;;;;;;;10.6;9.6;;;;;;;18.52;100;95609.5;;;;
2019/06/25 05:46:40;;;;;;;10.6;9.6;;;;;;;18.52;100;95609.5;;;;
2019/06/25 05:47:41;;;;;;;10.6;9.6;;;;;;;18.52;100;95609.5;;;;
2019/06/25 05:48:43;;;;;;;10.6;9.6;;;;;;;18.52;100;95609.5;;;;
2019/06/25 05:49:44;;;;;;;10.6;9.6;;;;;;;18.52;100;95609.5;;;;
2019/06/25 05:50:45;;;;;;;10.6;9.6;;;;;;;18.52;100;95609.5;;;;
2019/06/25 05:51:46;;;;;;;10.6;9.6;;;;;;;18.52;100;95609.5;;;;
2019/06/25 05:52:47;;;;;;;10.8;9.799998;;;;;;;18.91;100;95602.25;;;;
2019/06/25 05:53:48;;;;;;;10.8;9.799998;;;;;;;18.91;100;95602.25;;;;
2019/06/25 05:54:49;;;;;;;10.8;9.799998;;;;;;;18.91;100;95602.25;;;;
2019/06/25 05:55:50;;;;;;;10.8;9.799998;;;;;;;18.91;100;95602.25;;;;
2019/06/25 05:56:51;;;;;;;10.8;9.799998;;;;;;;18.91;100;95602.25;;;;